Airfield :
LOGIN :

Register | Disclaimer

   EN    FR    IT 

 










Legend :    VFR   Marginal VFR   IFR   Intensive IFR   Very Intensive IFR
Visi :
Ceiling :
>= 8 km
>= 3000ft
5 to 8 km
1000 to 3000 ft
1500m to 5 km
500 to 1000 ft
800 to 1500m
200 to 500 ft
< 800m
< 200 ft
Symbols :   Thunderstorms  Fog  Heavy snow  Heavy precipitations  Wind > 20 kt
SIGMETs :     Misc.  Thunderstorms  Icing  Turbulence  Mountain Waves  Volcanic Ashes






- Airport Elevation : 2077 ft
- IATA code : FMM


EDJA - Memmingen

CURRENT METAR :
  • 181120Z 21004KT 9999 FEW015 03/02 Q1026

EXPIRED METARs :
  • 181020Z 18003KT 9999 FEW019 OVC046 01/00 Q1027
  • 180950Z 27003KT 9000 FEW002 SCT021 OVC034 00/00 Q1027
  • 180920Z 28008KT 3600 SNRA SCT003 BKN013 OVC028 00/00 Q1027
  • 180850Z 23009KT 210V270 3000 SNRA BKN006 OVC024 02/01 Q1026

TAF TAF EDJA
Valid from the 18 at 12:00 until the 18 at 21:00 UTC


181100Z 1812/1821 22008KT 9999 SCT020
PROB30
TEMPO 1812/1816 2000 -SHSNRA BKN012TCU
PROB30
TEMPO 1816/1821 1200 -SHSN BKN006TCU



MET'MAP, your aeronautical weather chart ! - Copyright ORBIFLY December 2007 - Disclaimer

ORBIFLY MET'MAP TEAM :

Programming & Development : Alexandra Zaïnal
Concept & original design : Baudouin d'Aumeries
Assistance for programming : Marc-Olivier Méhu
Technical & hardware support : Manuel Goepfert

Contact : metmap@orbifly.com




SOURCES & CREDITS :

   NOAA